Time;durP1;ratioP1;P1;durP2;ratioP2;P2;SDS_P1;SDS_P2;PMS_P1;PMS_P2;Temp;Humidity;BMP_temperature;BMP_pressure;BME280_temperature;BME280_humidity;BME280_pressure;Samples;Min_cycle;Max_cycle;Signal;HPM_P1;HPM_P2
2023/12/13 00:00:14;;;;;;;3.40;3.17;;;8.20;99.90;;;;;;4991251;28;20202;-59
2023/12/13 00:02:41;;;;;;;3.20;3.00;;;8.20;99.90;;;;;;5000753;28;20195;-60
2023/12/13 00:05:08;;;;;;;2.70;2.50;;;8.20;99.90;;;;;;5010282;28;20256;-60
2023/12/13 00:07:35;;;;;;;3.13;2.93;;;8.20;99.90;;;;;;5008669;28;20774;-60
2023/12/13 00:10:04;;;;;;;2.50;2.37;;;8.20;99.90;;;;;;5007402;28;20253;-60
2023/12/13 00:12:31;;;;;;;2.70;2.50;;;8.20;99.90;;;;;;5010274;28;20659;-60
2023/12/13 00:14:58;;;;;;;2.80;1.90;;;8.20;99.90;;;;;;5013781;28;20263;-60
2023/12/13 00:17:25;;;;;;;2.53;2.27;;;8.20;99.90;;;;;;5008513;28;20673;-59
2023/12/13 00:19:52;;;;;;;3.50;3.30;;;8.10;99.90;;;;;;5014620;28;20205;-59
2023/12/13 00:22:19;;;;;;;2.43;2.33;;;8.20;99.90;;;;;;5019808;28;20661;-60
2023/12/13 00:24:45;;;;;;;2.47;2.27;;;8.10;99.90;;;;;;5012034;28;20203;-60
2023/12/13 00:27:14;;;;;;;3.40;3.17;;;8.10;99.90;;;;;;5009049;28;20205;-61
2023/12/13 00:29:41;;;;;;;4.10;3.80;;;8.20;99.90;;;;;;5007366;28;20283;-60
2023/12/13 00:32:08;;;;;;;3.50;3.07;;;8.10;99.90;;;;;;5009843;28;20318;-60
2023/12/13 00:34:35;;;;;;;3.67;3.47;;;8.10;99.90;;;;;;5002292;28;20202;-60
2023/12/13 00:37:02;;;;;;;3.50;3.30;;;8.10;99.90;;;;;;5007805;28;20209;-60
2023/12/13 00:39:29;;;;;;;3.67;3.30;;;8.20;99.90;;;;;;5008974;28;20225;-59
2023/12/13 00:41:55;;;;;;;3.63;3.33;;;8.20;99.90;;;;;;5005893;28;20199;-60
2023/12/13 00:44:24;;;;;;;2.93;2.63;;;8.20;99.90;;;;;;5006850;28;20252;-60
2023/12/13 00:46:54;;;;;;;2.70;2.53;;;8.20;99.90;;;;;;5007719;28;20260;-60
2023/12/13 00:49:21;;;;;;;2.77;2.57;;;8.30;99.90;;;;;;5008226;28;20704;-60
2023/12/13 00:51:48;;;;;;;2.40;1.87;;;8.30;99.90;;;;;;5009354;28;20308;-59
2023/12/13 00:54:15;;;;;;;2.63;2.40;;;8.30;99.90;;;;;;5012162;28;20197;-60
2023/12/13 00:56:42;;;;;;;2.37;2.23;;;8.20;99.90;;;;;;5004297;28;20209;-60
2023/12/13 00:59:09;;;;;;;2.50;2.30;;;8.20;99.90;;;;;;5011504;28;20221;-59
2023/12/13 01:01:47;;;;;;;2.43;2.23;;;8.20;99.90;;;;;;5010225;28;20283;-59
2023/12/13 01:04:14;;;;;;;1.60;1.50;;;8.20;99.90;;;;;;5010340;28;20244;-60
2023/12/13 01:06:41;;;;;;;1.93;1.83;;;8.20;99.90;;;;;;5011412;28;20220;-60
2023/12/13 01:09:09;;;;;;;2.50;1.87;;;8.20;99.90;;;;;;5010916;28;20221;-59
2023/12/13 01:11:36;;;;;;;2.40;1.80;;;8.20;99.90;;;;;;5011977;28;20229;-60
2023/12/13 01:14:04;;;;;;;1.83;1.67;;;8.20;99.90;;;;;;5023745;28;20251;-60
2023/12/13 01:16:31;;;;;;;2.30;2.20;;;8.10;99.90;;;;;;5011231;28;20198;-60
2023/12/13 01:19:00;;;;;;;2.53;2.33;;;8.10;99.90;;;;;;5010882;28;20230;-60
2023/12/13 01:21:28;;;;;;;2.67;2.47;;;8.10;99.90;;;;;;5011245;28;20201;-60
2023/12/13 01:23:55;;;;;;;2.13;2.03;;;8.10;99.90;;;;;;5010368;28;20340;-60
2023/12/13 01:26:22;;;;;;;2.50;2.40;;;8.10;99.90;;;;;;5010753;28;20202;-60
2023/12/13 01:28:49;;;;;;;2.57;2.43;;;8.10;99.90;;;;;;5010929;28;20612;-59
2023/12/13 01:31:16;;;;;;;2.10;2.00;;;8.10;99.90;;;;;;5010218;28;20219;-60
2023/12/13 01:33:44;;;;;;;2.60;2.40;;;8.10;99.90;;;;;;5011041;28;20249;-60
2023/12/13 01:36:12;;;;;;;1.87;1.80;;;8.10;99.90;;;;;;5020411;28;20291;-60
2023/12/13 01:38:39;;;;;;;2.17;2.07;;;8.00;99.90;;;;;;4998744;28;20717;-60
2023/12/13 01:41:07;;;;;;;2.00;1.80;;;7.90;99.90;;;;;;5005514;28;20234;-60
2023/12/13 01:43:33;;;;;;;1.93;1.83;;;7.90;99.90;;;;;;5021726;28;20275;-60
2023/12/13 01:46:01;;;;;;;2.10;2.00;;;7.90;99.90;;;;;;5030685;28;20203;-60
2023/12/13 01:48:28;;;;;;;2.87;2.63;;;7.90;99.90;;;;;;5016366;28;20233;-60
2023/12/13 01:50:56;;;;;;;3.60;3.17;;;7.90;99.90;;;;;;5009001;28;20205;-60
2023/12/13 01:53:26;;;;;;;4.00;2.13;;;8.00;99.90;;;;;;5010631;28;20292;-60
2023/12/13 01:55:54;;;;;;;3.40;3.20;;;7.90;99.90;;;;;;5011058;28;20751;-60
2023/12/13 01:58:22;;;;;;;2.80;2.70;;;7.90;99.90;;;;;;5020970;28;20784;-60
2023/12/13 02:00:52;;;;;;;2.70;2.50;;;7.90;99.90;;;;;;5034396;28;20208;-60
2023/12/13 02:03:20;;;;;;;2.17;2.07;;;7.90;99.90;;;;;;5014689;28;20647;-60
2023/12/13 02:05:48;;;;;;;2.90;2.70;;;7.80;99.90;;;;;;5014128;28;20199;-60
2023/12/13 02:08:15;;;;;;;1.83;1.73;;;7.90;99.90;;;;;;5012821;28;22002;-59
2023/12/13 02:10:44;;;;;;;2.50;2.40;;;7.90;99.90;;;;;;5013926;28;20264;-60
2023/12/13 02:13:11;;;;;;;2.70;2.60;;;7.80;99.90;;;;;;5006265;28;20285;-60
2023/12/13 02:15:38;;;;;;;3.37;2.10;;;7.90;99.90;;;;;;5012666;28;20201;-60
2023/12/13 02:18:09;;;;;;;3.53;2.43;;;8.00;99.90;;;;;;5014084;28;20225;-59
2023/12/13 02:20:36;;;;;;;2.60;2.40;;;8.00;99.90;;;;;;5014396;28;20299;-59
2023/12/13 02:23:04;;;;;;;3.17;3.03;;;8.00;99.90;;;;;;5014022;28;20736;-60
2023/12/13 02:25:37;;;;;;;3.60;2.83;;;7.90;99.90;;;;;;5014071;28;20248;-60
2023/12/13 02:28:05;;;;;;;3.70;3.40;;;7.90;99.90;;;;;;5002359;28;20653;-60
2023/12/13 02:30:33;;;;;;;4.40;4.10;;;7.90;99.90;;;;;;5007591;28;20676;-60
2023/12/13 02:33:00;;;;;;;3.47;3.27;;;7.90;99.90;;;;;;5013201;28;20229;-59
2023/12/13 02:35:27;;;;;;;3.87;3.57;;;7.90;99.90;;;;;;5013462;28;20272;-60
2023/12/13 02:37:54;;;;;;;4.33;4.03;;;7.90;99.90;;;;;;5013149;28;20234;-59
2023/12/13 02:40:22;;;;;;;4.47;4.07;;;7.80;99.90;;;;;;5011792;28;20668;-59
2023/12/13 02:42:50;;;;;;;4.37;4.07;;;7.80;99.90;;;;;;5013534;28;20245;-60
2023/12/13 02:45:17;;;;;;;3.37;3.27;;;7.80;99.90;;;;;;5013925;28;20295;-59
2023/12/13 02:47:45;;;;;;;3.70;3.40;;;7.80;99.90;;;;;;5020840;28;20214;-60
2023/12/13 02:50:13;;;;;;;3.40;3.20;;;7.80;99.90;;;;;;5033657;28;20227;-60
2023/12/13 02:52:40;;;;;;;3.90;3.70;;;7.80;99.90;;;;;;5016837;28;20220;-59
2023/12/13 02:55:09;;;;;;;4.10;3.90;;;7.70;99.90;;;;;;5021061;28;20283;-60
2023/12/13 02:57:38;;;;;;;4.43;4.03;;;7.70;99.90;;;;;;5032931;28;20207;-59
2023/12/13 03:00:06;;;;;;;3.60;3.40;;;7.70;99.90;;;;;;5033489;28;20206;-60
2023/12/13 03:02:33;;;;;;;3.23;2.97;;;7.80;99.90;;;;;;5017277;28;20202;-60
2023/12/13 03:05:01;;;;;;;3.10;2.93;;;7.80;99.90;;;;;;5013743;28;20206;-60
2023/12/13 03:07:28;;;;;;;2.40;2.30;;;7.70;99.90;;;;;;5011683;28;20203;-61
2023/12/13 03:09:55;;;;;;;3.90;3.57;;;7.80;99.90;;;;;;5013443;28;20203;-60
2023/12/13 03:12:22;;;;;;;4.67;3.77;;;7.80;99.90;;;;;;5013452;28;20225;-60
2023/12/13 03:14:51;;;;;;;4.00;3.47;;;7.80;99.90;;;;;;5012809;28;20732;-60
2023/12/13 03:17:18;;;;;;;3.50;3.20;;;7.70;99.90;;;;;;5011873;28;20252;-59
2023/12/13 03:19:45;;;;;;;2.43;2.10;;;7.70;99.90;;;;;;5011838;28;20197;-60
2023/12/13 03:22:12;;;;;;;5.87;4.47;;;7.70;99.90;;;;;;5013413;28;20197;-60
2023/12/13 03:24:39;;;;;;;5.00;4.53;;;7.80;99.90;;;;;;5013268;28;20217;-60
2023/12/13 03:27:06;;;;;;;5.00;3.60;;;7.80;99.90;;;;;;5013202;28;20692;-59
2023/12/13 03:29:33;;;;;;;2.70;2.60;;;7.80;99.90;;;;;;5010688;28;20289;-60
2023/12/13 03:32:01;;;;;;;3.03;2.80;;;7.70;99.90;;;;;;5013097;28;20222;-60
2023/12/13 03:34:28;;;;;;;2.93;2.47;;;7.80;99.90;;;;;;5019567;28;20204;-60
2023/12/13 03:36:56;;;;;;;6.27;3.57;;;7.80;99.90;;;;;;5032826;28;20688;-60
2023/12/13 03:39:23;;;;;;;4.10;3.10;;;7.70;99.90;;;;;;5032435;28;20273;-60
2023/12/13 03:41:52;;;;;;;3.23;3.03;;;7.70;99.90;;;;;;5029598;28;20280;-59
2023/12/13 03:44:19;;;;;;;2.50;2.27;;;7.70;99.90;;;;;;5012888;28;20258;-59
2023/12/13 03:46:46;;;;;;;2.53;2.40;;;7.70;99.90;;;;;;5013158;28;20202;-60
2023/12/13 03:49:16;;;;;;;3.30;3.10;;;7.70;99.90;;;;;;5011167;28;20897;-59
2023/12/13 03:51:47;;;;;;;2.97;2.80;;;7.70;99.90;;;;;;5012721;28;20769;-60
2023/12/13 03:54:14;;;;;;;3.33;3.10;;;7.70;99.90;;;;;;5012048;28;20248;-60
2023/12/13 03:56:41;;;;;;;3.50;3.30;;;7.70;99.90;;;;;;5010776;28;20201;-59
2023/12/13 03:59:08;;;;;;;4.30;3.97;;;7.70;99.90;;;;;;5012102;28;20717;-60
2023/12/13 04:01:36;;;;;;;4.17;3.97;;;7.80;99.90;;;;;;5012579;28;20236;-60
2023/12/13 04:04:03;;;;;;;3.90;3.60;;;7.80;99.90;;;;;;5012661;28;20757;-59
2023/12/13 04:06:31;;;;;;;3.77;3.50;;;7.80;99.90;;;;;;5015153;28;20263;-60
2023/12/13 04:08:58;;;;;;;3.40;3.20;;;7.80;99.90;;;;;;5010585;28;20710;-60
2023/12/13 04:11:25;;;;;;;5.23;4.73;;;7.70;99.90;;;;;;5012541;28;20766;-60
2023/12/13 04:13:52;;;;;;;3.90;3.70;;;7.70;99.90;;;;;;5012376;28;20620;-60
2023/12/13 04:16:19;;;;;;;4.23;3.83;;;7.70;99.90;;;;;;5012497;28;20213;-59
2023/12/13 04:18:46;;;;;;;4.00;3.73;;;7.70;99.90;;;;;;5011950;28;20253;-60
2023/12/13 04:21:13;;;;;;;4.30;3.53;;;7.60;99.90;;;;;;5008905;28;20205;-59
2023/12/13 04:23:41;;;;;;;3.80;3.60;;;7.60;99.90;;;;;;5021892;28;20201;-59
2023/12/13 04:26:09;;;;;;;4.70;4.30;;;7.60;99.90;;;;;;5031985;28;20791;-59
2023/12/13 04:28:36;;;;;;;3.33;3.13;;;7.60;99.90;;;;;;5031776;28;20225;-60
2023/12/13 04:31:03;;;;;;;3.60;3.37;;;7.60;99.90;;;;;;5029572;28;20212;-60
2023/12/13 04:33:31;;;;;;;3.30;3.10;;;7.60;99.90;;;;;;5010902;28;20700;-60
2023/12/13 04:36:00;;;;;;;3.53;3.33;;;7.60;99.90;;;;;;5012002;28;20230;-59
2023/12/13 04:38:27;;;;;;;4.87;4.23;;;7.60;99.90;;;;;;5011632;28;20233;-59
2023/12/13 04:40:55;;;;;;;4.63;4.30;;;7.60;99.90;;;;;;5027069;28;20250;-59
2023/12/13 04:43:22;;;;;;;4.13;3.83;;;7.50;99.90;;;;;;5031883;28;20204;-59
2023/12/13 04:45:49;;;;;;;3.77;3.53;;;7.50;99.90;;;;;;5019483;28;20233;-59
2023/12/13 04:48:16;;;;;;;4.13;3.73;;;7.50;99.90;;;;;;5011211;28;20763;-60
2023/12/13 04:50:43;;;;;;;3.10;3.00;;;7.60;99.90;;;;;;5012137;28;20561;-59
2023/12/13 04:53:10;;;;;;;4.30;4.00;;;7.60;99.90;;;;;;5012074;28;20655;-59
2023/12/13 04:55:37;;;;;;;3.90;3.70;;;7.60;99.90;;;;;;5013802;28;20255;-60
2023/12/13 04:58:05;;;;;;;3.50;3.30;;;7.50;99.90;;;;;;5018126;28;20669;-60
2023/12/13 05:00:32;;;;;;;4.20;3.90;;;7.50;99.90;;;;;;5009157;28;20265;-60
2023/12/13 05:02:59;;;;;;;4.33;4.00;;;7.60;99.90;;;;;;5011441;28;20329;-59
2023/12/13 05:05:26;;;;;;;4.47;4.13;;;7.90;99.90;;;;;;5011306;28;20209;-60
2023/12/13 05:07:53;;;;;;;4.60;4.30;;;7.70;99.90;;;;;;5010264;28;20226;-59
2023/12/13 05:10:20;;;;;;;5.77;5.37;;;7.70;99.90;;;;;;5011533;28;20272;-59
2023/12/13 05:12:47;;;;;;;5.30;4.90;;;7.70;99.90;;;;;;5010349;28;20291;-60
2023/12/13 05:15:16;;;;;;;5.23;4.93;;;7.60;99.90;;;;;;5013822;28;20634;-60
2023/12/13 05:17:43;;;;;;;6.10;5.50;;;7.60;99.90;;;;;;5010902;28;20283;-60
2023/12/13 05:20:11;;;;;;;4.73;4.43;;;7.60;99.90;;;;;;5010015;28;20209;-59
2023/12/13 05:22:38;;;;;;;7.10;5.70;;;7.60;99.90;;;;;;5010203;28;20193;-60
2023/12/13 05:25:05;;;;;;;5.67;5.17;;;7.60;99.90;;;;;;5011507;28;20198;-59
2023/12/13 05:27:32;;;;;;;5.30;4.90;;;7.60;99.90;;;;;;5010634;28;20216;-59
2023/12/13 05:29:59;;;;;;;5.07;4.63;;;7.70;99.90;;;;;;5010531;28;20208;-59
2023/12/13 05:32:28;;;;;;;6.73;5.83;;;7.60;99.90;;;;;;5013794;28;20229;-59
2023/12/13 05:34:55;;;;;;;6.10;5.60;;;7.60;99.90;;;;;;5015055;28;20203;-59
2023/12/13 05:37:22;;;;;;;7.80;6.87;;;7.60;99.90;;;;;;5014092;28;20217;-59
2023/12/13 05:39:49;;;;;;;9.13;5.33;;;7.70;99.90;;;;;;5005721;28;20264;-59
2023/12/13 05:42:16;;;;;;;5.67;5.17;;;7.70;99.90;;;;;;5008100;28;20680;-60
2023/12/13 05:44:42;;;;;;;5.93;5.40;;;7.60;99.90;;;;;;5014693;28;20923;-59
2023/12/13 05:47:10;;;;;;;5.30;4.80;;;7.50;99.90;;;;;;5013788;28;20727;-59
2023/12/13 05:49:38;;;;;;;5.97;5.13;;;7.50;99.90;;;;;;5014792;28;20260;-59
2023/12/13 05:52:06;;;;;;;6.53;5.53;;;7.60;99.90;;;;;;5012840;28;20259;-59
2023/12/13 05:54:33;;;;;;;6.63;6.13;;;7.50;99.90;;;;;;5005366;28;20269;-59
2023/12/13 05:57:00;;;;;;;4.97;4.57;;;7.40;99.90;;;;;;5010234;28;20202;-61
2023/12/13 05:59:27;;;;;;;6.10;5.60;;;7.50;99.90;;;;;;5011596;28;20228;-59
2023/12/13 06:01:54;;;;;;;5.80;5.33;;;7.40;99.90;;;;;;5013381;28;20198;-60
2023/12/13 06:04:21;;;;;;;6.13;5.53;;;7.40;99.90;;;;;;5014269;28;20252;-60
2023/12/13 06:06:50;;;;;;;7.10;6.43;;;7.40;99.90;;;;;;5014503;28;20204;-60
2023/12/13 06:09:17;;;;;;;7.53;6.67;;;7.40;99.90;;;;;;5014081;28;20228;-59
2023/12/13 06:11:47;;;;;;;6.70;6.10;;;7.30;99.90;;;;;;5013023;28;20209;-59
2023/12/13 06:14:14;;;;;;;7.33;6.57;;;7.30;99.90;;;;;;4998373;28;20604;-59
2023/12/13 06:16:41;;;;;;;7.13;6.50;;;7.30;99.90;;;;;;5002735;28;20314;-59
2023/12/13 06:19:08;;;;;;;6.63;5.73;;;7.30;99.90;;;;;;5011800;28;20221;-59
2023/12/13 06:21:35;;;;;;;10.47;7.30;;;7.30;99.90;;;;;;5014108;28;20255;-59
2023/12/13 06:24:04;;;;;;;9.07;8.20;;;7.30;99.90;;;;;;5014133;28;20253;-60
2023/12/13 06:26:31;;;;;;;10.17;5.53;;;7.30;99.90;;;;;;5009855;28;20245;-60
2023/12/13 06:28:59;;;;;;;6.10;5.50;;;7.20;99.90;;;;;;5013847;28;20692;-59
2023/12/13 06:31:26;;;;;;;5.60;5.20;;;7.20;99.90;;;;;;5012705;28;20206;-60
2023/12/13 06:33:53;;;;;;;6.67;5.90;;;7.20;99.90;;;;;;5013067;28;20229;-59
2023/12/13 06:36:20;;;;;;;8.10;6.03;;;7.30;99.90;;;;;;5011123;28;20221;-59
2023/12/13 06:38:47;;;;;;;5.43;5.03;;;7.30;99.90;;;;;;5013406;28;20243;-59
2023/12/13 06:41:15;;;;;;;8.10;6.50;;;7.30;99.90;;;;;;5012090;28;20212;-59
2023/12/13 06:43:42;;;;;;;6.47;5.87;;;7.40;99.90;;;;;;5004944;28;20225;-60
2023/12/13 06:46:09;;;;;;;5.80;5.30;;;7.40;99.90;;;;;;5015379;28;20213;-59
2023/12/13 06:48:36;;;;;;;5.13;4.60;;;7.40;99.90;;;;;;5013484;28;20216;-60
2023/12/13 06:51:04;;;;;;;5.20;4.90;;;7.40;99.90;;;;;;5013334;28;20205;-59
2023/12/13 06:53:31;;;;;;;7.13;5.83;;;7.40;99.90;;;;;;5012707;28;20651;-60
2023/12/13 06:55:58;;;;;;;6.60;6.00;;;8.40;99.90;;;;;;5013601;28;20205;-60
2023/12/13 06:58:27;;;;;;;6.83;6.13;;;7.20;99.90;;;;;;5012977;28;20745;-60
2023/12/13 07:00:54;;;;;;;8.60;6.93;;;7.30;99.90;;;;;;5013473;28;20204;-59
2023/12/13 07:03:21;;;;;;;5.07;4.63;;;7.40;99.90;;;;;;5013410;28;20205;-59
2023/12/13 07:05:48;;;;;;;6.00;5.40;;;7.40;99.90;;;;;;5012485;28;20641;-60
2023/12/13 07:08:15;;;;;;;5.23;4.73;;;7.50;99.90;;;;;;4996663;28;20601;-60
2023/12/13 07:10:43;;;;;;;4.83;4.43;;;7.50;99.90;;;;;;5005272;28;20693;-59
2023/12/13 07:13:10;;;;;;;5.37;4.90;;;7.40;99.90;;;;;;5012437;28;20511;-59
2023/12/13 07:15:38;;;;;;;4.90;4.50;;;7.50;99.90;;;;;;5010589;28;20202;-59
2023/12/13 07:18:05;;;;;;;5.07;4.67;;;7.50;99.90;;;;;;5003452;28;20279;-60
2023/12/13 07:20:32;;;;;;;5.33;4.20;;;7.50;99.90;;;;;;5012248;28;20279;-59
2023/12/13 07:22:59;;;;;;;4.33;3.93;;;7.40;99.90;;;;;;5013116;28;20203;-59
2023/12/13 07:25:26;;;;;;;3.17;2.90;;;7.50;99.90;;;;;;5013113;28;20210;-60
2023/12/13 07:27:54;;;;;;;3.30;3.00;;;7.50;99.90;;;;;;5009656;28;20229;-60
2023/12/13 07:30:23;;;;;;;3.40;2.83;;;7.50;99.90;;;;;;5012795;28;20209;-59
2023/12/13 07:32:53;;;;;;;3.17;2.83;;;7.50;99.90;;;;;;5012597;28;20228;-60
2023/12/13 07:35:20;;;;;;;2.10;2.00;;;7.60;99.90;;;;;;5012608;28;20264;-59
2023/12/13 07:37:48;;;;;;;2.50;2.40;;;7.60;99.90;;;;;;5012418;28;20642;-60
2023/12/13 07:40:15;;;;;;;2.83;2.70;;;7.60;99.90;;;;;;5011042;28;20209;-60
2023/12/13 07:42:42;;;;;;;3.33;2.10;;;7.60;99.90;;;;;;5005000;28;20255;-60
2023/12/13 07:45:11;;;;;;;3.47;3.17;;;7.60;99.90;;;;;;5004933;28;20210;-60
2023/12/13 07:47:39;;;;;;;2.53;2.33;;;7.60;99.90;;;;;;5002360;28;20202;-59
2023/12/13 07:50:08;;;;;;;2.57;2.37;;;7.60;99.90;;;;;;5004181;28;20689;-60
2023/12/13 07:52:35;;;;;;;2.20;2.10;;;7.60;99.90;;;;;;5011110;28;20240;-60
2023/12/13 07:55:02;;;;;;;3.73;2.40;;;7.70;99.90;;;;;;5011896;28;20209;-60
2023/12/13 07:57:29;;;;;;;2.10;2.00;;;7.60;99.90;;;;;;5009786;28;20260;-60
2023/12/13 07:59:56;;;;;;;1.83;1.83;;;7.70;99.90;;;;;;5009502;28;20352;-60
2023/12/13 08:02:24;;;;;;;3.53;2.50;;;7.70;99.90;;;;;;5009496;28;20677;-59
2023/12/13 08:04:51;;;;;;;2.20;2.07;;;7.70;99.90;;;;;;5010162;28;20205;-59
2023/12/13 08:07:19;;;;;;;3.67;3.30;;;7.70;99.90;;;;;;5008253;28;20206;-59
2023/12/13 08:09:46;;;;;;;2.80;2.57;;;7.70;99.90;;;;;;5008615;28;20666;-59
2023/12/13 08:12:13;;;;;;;2.07;1.97;;;7.70;99.90;;;;;;5006767;28;20231;-60
2023/12/13 08:14:41;;;;;;;3.00;2.07;;;7.70;99.90;;;;;;5006300;28;20225;-60
2023/12/13 08:17:09;;;;;;;2.27;2.17;;;7.60;99.90;;;;;;5004333;28;20201;-59
2023/12/13 08:19:36;;;;;;;3.00;2.80;;;7.60;99.90;;;;;;4994756;28;20226;-60
2023/12/13 08:22:04;;;;;;;2.87;2.67;;;7.60;99.90;;;;;;5009507;28;20232;-60
2023/12/13 08:24:32;;;;;;;4.47;3.13;;;7.50;99.90;;;;;;5010480;28;20251;-60
2023/12/13 08:26:59;;;;;;;2.73;2.30;;;7.60;99.90;;;;;;5006216;28;20205;-60
2023/12/13 08:29:26;;;;;;;3.07;2.30;;;7.60;99.90;;;;;;4998766;28;20291;-60
2023/12/13 08:31:53;;;;;;;5.90;2.40;;;7.60;99.90;;;;;;4994628;28;20674;-60
2023/12/13 08:34:20;;;;;;;1.97;1.87;;;7.80;99.90;;;;;;5000193;28;20316;-60
2023/12/13 08:36:52;;;;;;;3.03;2.20;;;7.80;99.90;;;;;;5002014;28;20209;-60
2023/12/13 08:39:21;;;;;;;3.00;2.30;;;7.80;99.90;;;;;;5003939;28;20229;-61
2023/12/13 08:41:52;;;;;;;2.80;2.60;;;7.80;99.90;;;;;;5008420;28;20296;-59
2023/12/13 08:44:19;;;;;;;2.50;2.20;;;7.90;99.90;;;;;;5011506;28;20605;-60
2023/12/13 08:46:51;;;;;;;2.20;1.67;;;7.90;99.90;;;;;;5011478;28;20203;-60
2023/12/13 08:49:19;;;;;;;2.27;1.93;;;8.00;99.90;;;;;;5010704;28;20231;-59
2023/12/13 08:51:46;;;;;;;1.67;1.57;;;8.00;99.90;;;;;;5007706;28;20203;-60
2023/12/13 08:54:13;;;;;;;1.70;1.50;;;8.00;99.90;;;;;;5005939;28;20261;-59
2023/12/13 08:56:41;;;;;;;2.07;1.87;;;8.00;99.90;;;;;;5011634;28;20276;-59
2023/12/13 08:59:09;;;;;;;3.27;1.53;;;8.00;99.90;;;;;;5010318;28;20284;-59
2023/12/13 09:01:36;;;;;;;2.97;1.40;;;8.00;99.90;;;;;;5011034;28;20217;-60
2023/12/13 09:04:03;;;;;;;1.90;1.80;;;8.10;99.90;;;;;;5011285;28;20197;-60
2023/12/13 09:06:30;;;;;;;1.23;0.93;;;8.10;99.90;;;;;;5014722;28;20209;-60
2023/12/13 09:08:57;;;;;;;2.13;1.73;;;8.20;99.90;;;;;;5017061;28;20226;-59
2023/12/13 09:11:25;;;;;;;1.47;1.20;;;8.10;99.90;;;;;;5017269;28;20212;-60
2023/12/13 09:13:52;;;;;;;1.97;1.87;;;8.10;99.90;;;;;;5018225;28;20222;-59
2023/12/13 09:16:20;;;;;;;1.40;1.40;;;8.20;99.90;;;;;;5017195;28;20203;-59
2023/12/13 09:18:49;;;;;;;2.70;1.90;;;8.20;99.90;;;;;;5016515;28;20283;-60
2023/12/13 09:21:16;;;;;;;2.20;1.57;;;8.30;99.90;;;;;;5017914;28;20704;-60
2023/12/13 09:23:43;;;;;;;2.23;2.10;;;8.30;99.90;;;;;;5009312;28;20276;-60
2023/12/13 09:26:13;;;;;;;2.73;1.87;;;8.30;99.90;;;;;;5016542;28;20221;-59
2023/12/13 09:28:40;;;;;;;2.77;2.53;;;8.30;99.90;;;;;;5014622;28;20221;-60
2023/12/13 09:31:07;;;;;;;2.97;2.77;;;8.40;99.90;;;;;;5017899;28;20200;-59
2023/12/13 09:33:36;;;;;;;5.43;3.13;;;8.40;99.90;;;;;;5017287;28;20224;-59
2023/12/13 09:36:03;;;;;;;3.87;3.07;;;8.30;99.90;;;;;;5017567;28;20288;-59
2023/12/13 09:38:31;;;;;;;3.53;3.23;;;8.40;99.90;;;;;;5017155;28;20724;-59
2023/12/13 09:40:58;;;;;;;2.93;2.73;;;8.30;99.90;;;;;;5017749;28;20229;-59
2023/12/13 09:43:26;;;;;;;2.00;1.83;;;8.20;99.90;;;;;;5016339;28;20237;-60
2023/12/13 09:45:54;;;;;;;3.37;1.90;;;8.10;99.90;;;;;;5017470;28;20209;-59
2023/12/13 09:48:24;;;;;;;2.00;1.63;;;8.10;99.90;;;;;;5012503;28;20221;-59
2023/12/13 09:50:54;;;;;;;3.00;0.97;;;8.20;99.90;;;;;;5017376;28;20676;-59
2023/12/13 09:53:22;;;;;;;1.53;1.30;;;8.20;99.90;;;;;;5017313;28;20236;-59
2023/12/13 09:55:49;;;;;;;1.63;1.53;;;8.10;99.90;;;;;;5016438;28;20669;-59
2023/12/13 09:58:16;;;;;;;10.27;5.83;;;8.10;99.90;;;;;;5017238;28;20279;-59
2023/12/13 10:00:43;;;;;;;2.47;1.57;;;8.10;99.90;;;;;;5008232;28;20200;-60
2023/12/13 10:03:11;;;;;;;1.97;1.30;;;8.10;99.90;;;;;;5016981;28;21073;-59
2023/12/13 10:05:40;;;;;;;1.07;1.07;;;8.10;99.90;;;;;;5017467;28;20684;-59
2023/12/13 10:08:11;;;;;;;0.90;0.83;;;8.10;99.90;;;;;;5008684;28;20311;-59
2023/12/13 10:10:39;;;;;;;2.00;1.40;;;8.10;99.90;;;;;;5018747;28;20209;-57
2023/12/13 10:13:09;;;;;;;2.60;1.40;;;8.10;99.90;;;;;;5013272;28;20204;-57
2023/12/13 10:15:37;;;;;;;1.75;1.30;;;8.10;99.90;;;;;;5012571;28;20459;-68
2023/12/13 10:18:04;;;;;;;1.30;1.20;;;8.20;99.90;;;;;;5011723;28;20241;-64
2023/12/13 10:20:34;;;;;;;2.83;1.80;;;8.20;99.90;;;;;;5014015;28;20201;-65
2023/12/13 10:23:01;;;;;;;3.03;2.37;;;8.10;99.90;;;;;;5012955;28;20961;-65
2023/12/13 10:25:30;;;;;;;3.03;2.83;;;8.10;99.90;;;;;;5013754;28;20198;-65
2023/12/13 10:27:58;;;;;;;3.50;3.20;;;8.20;99.90;;;;;;5005735;28;20763;-65
2023/12/13 10:30:26;;;;;;;3.67;3.30;;;8.20;99.90;;;;;;5013636;28;20209;-64
2023/12/13 10:32:53;;;;;;;3.17;1.50;;;8.20;99.90;;;;;;5013843;28;20207;-64
2023/12/13 10:35:22;;;;;;;2.50;2.07;;;8.20;99.90;;;;;;5013683;28;20228;-63
2023/12/13 10:37:51;;;;;;;1.20;1.10;;;8.30;99.90;;;;;;5013289;28;20625;-63
2023/12/13 10:40:20;;;;;;;2.10;1.20;;;8.40;99.90;;;;;;5011829;28;20246;-63
2023/12/13 10:42:54;;;;;;;4.33;1.80;;;8.50;99.90;;;;;;5013568;28;20234;-65
2023/12/13 10:45:23;;;;;;;1.00;1.00;;;8.60;99.90;;;;;;5013911;28;20197;-64
2023/12/13 10:47:56;;;;;;;1.00;1.00;;;8.80;99.90;;;;;;5013249;28;20225;-64
2023/12/13 10:50:24;;;;;;;0.60;0.60;;;8.80;99.90;;;;;;5005571;28;20288;-63
2023/12/13 10:52:52;;;;;;;2.60;1.93;;;8.90;99.90;;;;;;5013229;28;20722;-64
2023/12/13 10:55:20;;;;;;;1.20;1.10;;;9.00;99.90;;;;;;5013212;28;20644;-64
2023/12/13 10:57:48;;;;;;;1.97;1.13;;;8.90;99.90;;;;;;5004019;28;20270;-63
2023/12/13 11:00:17;;;;;;;1.93;1.10;;;8.80;99.90;;;;;;5013918;28;20255;-64
2023/12/13 11:02:52;;;;;;;2.53;0.90;;;8.80;99.90;;;;;;5013984;28;20621;-63
2023/12/13 11:05:19;;;;;;;1.33;0.80;;;8.70;99.90;;;;;;5011950;28;20588;-64
2023/12/13 11:07:47;;;;;;;2.50;0.80;;;8.70;99.90;;;;;;5005136;28;20225;-64
2023/12/13 11:10:15;;;;;;;2.17;0.90;;;8.70;99.90;;;;;;5010831;28;20216;-62
2023/12/13 11:12:51;;;;;;;1.03;0.90;;;8.70;99.90;;;;;;5012729;28;20221;-62
2023/12/13 11:15:19;;;;;;;1.30;1.20;;;8.60;99.90;;;;;;5004706;28;20286;-63
2023/12/13 11:17:48;;;;;;;2.10;1.53;;;8.50;99.90;;;;;;5004801;28;20256;-64
2023/12/13 11:20:15;;;;;;;1.30;1.20;;;8.60;99.90;;;;;;5013715;28;20292;-64
2023/12/13 11:22:47;;;;;;;0.93;0.90;;;8.60;99.90;;;;;;5004625;28;20628;-64
2023/12/13 11:25:14;;;;;;;1.37;1.27;;;8.50;99.90;;;;;;5005332;28;20220;-63
2023/12/13 11:27:56;;;;;;;2.53;2.03;;;8.60;99.90;;;;;;5009417;28;21697;-64
2023/12/13 11:30:23;;;;;;;1.97;1.77;;;8.60;99.90;;;;;;5009345;28;20388;-60
2023/12/13 11:32:51;;;;;;;1.87;1.70;;;8.50;99.90;;;;;;5013065;28;20202;-59
2023/12/13 11:35:19;;;;;;;1.33;1.20;;;8.40;99.90;;;;;;5012941;28;20229;-59
2023/12/13 11:37:49;;;;;;;2.43;1.57;;;8.40;99.90;;;;;;5011618;28;20678;-59
2023/12/13 11:40:16;;;;;;;1.90;1.13;;;8.40;99.90;;;;;;5005656;28;20204;-60
2023/12/13 11:42:43;;;;;;;1.00;1.00;;;8.40;99.90;;;;;;5011668;28;20240;-59
2023/12/13 11:45:12;;;;;;;4.77;1.63;;;8.40;99.90;;;;;;5009822;28;20205;-60
2023/12/13 11:47:39;;;;;;;3.20;1.23;;;8.40;99.90;;;;;;5012196;28;20205;-59
2023/12/13 11:50:10;;;;;;;1.20;1.10;;;8.30;99.90;;;;;;5012363;28;20209;-59
2023/12/13 11:52:37;;;;;;;1.70;1.60;;;8.30;99.90;;;;;;5012311;28;20212;-59
2023/12/13 11:55:06;;;;;;;2.80;1.93;;;8.40;99.90;;;;;;5003437;28;20225;-64
2023/12/13 11:57:34;;;;;;;3.90;1.27;;;8.50;99.90;;;;;;5011786;28;20264;-65
2023/12/13 12:00:02;;;;;;;2.10;1.60;;;8.40;99.90;;;;;;5012382;28;20688;-63
2023/12/13 12:02:30;;;;;;;1.23;1.00;;;8.40;99.90;;;;;;5012404;28;20209;-64
2023/12/13 12:05:01;;;;;;;2.47;2.27;;;8.40;99.90;;;;;;5011749;28;20628;-63
2023/12/13 12:07:28;;;;;;;2.50;1.47;;;8.30;99.90;;;;;;4998443;28;20198;-63
2023/12/13 12:09:56;;;;;;;2.07;1.97;;;8.30;99.90;;;;;;5010575;28;20293;-63
2023/12/13 12:12:25;;;;;;;3.97;1.87;;;8.30;99.90;;;;;;5011949;28;20573;-63
2023/12/13 12:14:52;;;;;;;3.03;1.40;;;8.30;99.90;;;;;;5011089;28;20301;-64
2023/12/13 12:17:20;;;;;;;1.27;0.97;;;8.20;99.90;;;;;;5009579;28;20253;-63
2023/12/13 12:19:49;;;;;;;1.07;0.87;;;8.20;99.90;;;;;;5011785;28;20256;-63
2023/12/13 12:22:17;;;;;;;0.83;0.77;;;8.10;99.90;;;;;;5011752;28;20755;-63
2023/12/13 12:24:47;;;;;;;2.57;1.17;;;8.10;99.90;;;;;;5011793;28;20197;-63
2023/12/13 12:27:14;;;;;;;1.77;1.27;;;8.00;99.90;;;;;;5011736;28;20211;-65
2023/12/13 12:29:41;;;;;;;2.90;1.50;;;7.90;99.90;;;;;;5011797;28;20796;-65
2023/12/13 12:32:09;;;;;;;6.00;2.27;;;7.90;99.90;;;;;;5010991;28;20259;-64
2023/12/13 12:34:37;;;;;;;3.80;1.30;;;7.90;99.90;;;;;;5011043;28;20241;-62
2023/12/13 12:37:06;;;;;;;1.83;1.63;;;7.90;99.90;;;;;;5011747;28;20592;-63
2023/12/13 12:39:33;;;;;;;3.03;1.87;;;7.80;99.90;;;;;;5011253;28;20275;-62
2023/12/13 12:42:02;;;;;;;3.27;2.17;;;7.80;99.90;;;;;;5010581;28;20210;-64
2023/12/13 12:44:29;;;;;;;1.80;1.67;;;7.80;99.90;;;;;;5011722;28;20252;-63
2023/12/13 12:46:56;;;;;;;3.83;1.83;;;7.80;99.90;;;;;;5011388;28;20256;-63
2023/12/13 12:49:23;;;;;;;2.83;1.80;;;7.80;99.90;;;;;;5010530;28;20684;-64
2023/12/13 12:51:50;;;;;;;2.10;1.80;;;7.80;99.90;;;;;;5011108;28;20196;-63
2023/12/13 12:54:19;;;;;;;2.83;2.20;;;7.80;99.90;;;;;;5011472;28;20673;-64
2023/12/13 12:56:50;;;;;;;2.33;1.87;;;7.80;99.90;;;;;;5010414;28;20248;-63
2023/12/13 12:59:17;;;;;;;3.00;2.80;;;7.80;99.90;;;;;;5008931;28;20294;-63